sensor_id;sensor_type;location;lat;lon;timestamp;temperature;humidity
5055;DHT22;13829;48.990;8.346;2024-01-10T00:01:49;-1.80;91.50
5055;DHT22;13829;48.990;8.346;2024-01-10T00:04:16;-1.80;91.50
5055;DHT22;13829;48.990;8.346;2024-01-10T00:06:43;-1.80;91.60
5055;DHT22;13829;48.990;8.346;2024-01-10T00:09:10;-1.80;91.60
5055;DHT22;13829;48.990;8.346;2024-01-10T00:11:38;-1.80;91.60
5055;DHT22;13829;48.990;8.346;2024-01-10T00:14:05;-1.90;91.80
5055;DHT22;13829;48.990;8.346;2024-01-10T00:16:32;-1.90;91.80
5055;DHT22;13829;48.990;8.346;2024-01-10T00:18:59;-2.00;91.90
5055;DHT22;13829;48.990;8.346;2024-01-10T00:21:26;-1.90;91.80
5055;DHT22;13829;48.990;8.346;2024-01-10T00:23:53;-1.90;91.90
5055;DHT22;13829;48.990;8.346;2024-01-10T00:26:20;-1.90;92.10
5055;DHT22;13829;48.990;8.346;2024-01-10T00:28:49;-1.90;92.00
5055;DHT22;13829;48.990;8.346;2024-01-10T00:31:16;-1.80;92.00
5055;DHT22;13829;48.990;8.346;2024-01-10T00:33:43;-1.90;91.80
5055;DHT22;13829;48.990;8.346;2024-01-10T00:36:10;-1.90;91.80
5055;DHT22;13829;48.990;8.346;2024-01-10T00:38:37;-1.80;91.80
5055;DHT22;13829;48.990;8.346;2024-01-10T00:41:04;-1.90;91.80
5055;DHT22;13829;48.990;8.346;2024-01-10T00:43:31;-1.80;91.70
5055;DHT22;13829;48.990;8.346;2024-01-10T00:45:59;-1.70;91.90
5055;DHT22;13829;48.990;8.346;2024-01-10T00:48:26;-1.80;91.80
5055;DHT22;13829;48.990;8.346;2024-01-10T00:50:53;-1.80;91.80
5055;DHT22;13829;48.990;8.346;2024-01-10T00:53:20;-1.90;91.90
5055;DHT22;13829;48.990;8.346;2024-01-10T00:55:47;-1.80;91.90
5055;DHT22;13829;48.990;8.346;2024-01-10T00:58:14;-1.80;91.80
5055;DHT22;13829;48.990;8.346;2024-01-10T01:00:41;-1.90;91.70
5055;DHT22;13829;48.990;8.346;2024-01-10T01:03:09;-1.90;91.80
5055;DHT22;13829;48.990;8.346;2024-01-10T01:05:37;-1.90;92.10
5055;DHT22;13829;48.990;8.346;2024-01-10T01:08:05;-1.90;92.10
5055;DHT22;13829;48.990;8.346;2024-01-10T01:10:33;-2.00;92.30
5055;DHT22;13829;48.990;8.346;2024-01-10T01:13:00;-1.90;91.80
5055;DHT22;13829;48.990;8.346;2024-01-10T01:15:27;-1.90;91.80
5055;DHT22;13829;48.990;8.346;2024-01-10T01:17:54;-1.90;91.70
5055;DHT22;13829;48.990;8.346;2024-01-10T01:20:22;-1.90;91.80
5055;DHT22;13829;48.990;8.346;2024-01-10T01:22:49;-1.90;91.80
5055;DHT22;13829;48.990;8.346;2024-01-10T01:25:16;-1.90;91.90
5055;DHT22;13829;48.990;8.346;2024-01-10T01:27:43;-1.90;91.90
5055;DHT22;13829;48.990;8.346;2024-01-10T01:30:11;-1.80;91.80
5055;DHT22;13829;48.990;8.346;2024-01-10T01:32:38;-1.80;91.90
5055;DHT22;13829;48.990;8.346;2024-01-10T01:35:06;-1.80;91.70
5055;DHT22;13829;48.990;8.346;2024-01-10T01:37:34;-1.80;91.60
5055;DHT22;13829;48.990;8.346;2024-01-10T01:40:01;-1.90;91.50
5055;DHT22;13829;48.990;8.346;2024-01-10T01:42:28;-1.90;91.80
5055;DHT22;13829;48.990;8.346;2024-01-10T01:44:55;-1.90;91.60
5055;DHT22;13829;48.990;8.346;2024-01-10T01:47:22;-1.90;91.80
5055;DHT22;13829;48.990;8.346;2024-01-10T01:49:49;-1.90;91.90
5055;DHT22;13829;48.990;8.346;2024-01-10T01:52:16;-1.90;91.90
5055;DHT22;13829;48.990;8.346;2024-01-10T01:54:44;-2.00;92.10
5055;DHT22;13829;48.990;8.346;2024-01-10T01:57:12;-2.00;92.10
5055;DHT22;13829;48.990;8.346;2024-01-10T01:59:40;-2.00;92.00
5055;DHT22;13829;48.990;8.346;2024-01-10T02:02:07;-2.00;92.10
5055;DHT22;13829;48.990;8.346;2024-01-10T02:04:36;-1.90;92.20
5055;DHT22;13829;48.990;8.346;2024-01-10T02:07:03;-2.00;92.00
5055;DHT22;13829;48.990;8.346;2024-01-10T02:09:30;-1.90;92.10
5055;DHT22;13829;48.990;8.346;2024-01-10T02:11:58;-1.90;92.10
5055;DHT22;13829;48.990;8.346;2024-01-10T02:14:25;-1.90;92.00
5055;DHT22;13829;48.990;8.346;2024-01-10T02:16:53;-1.90;92.00
5055;DHT22;13829;48.990;8.346;2024-01-10T02:19:21;-2.00;92.00
5055;DHT22;13829;48.990;8.346;2024-01-10T02:21:49;-2.00;92.20
5055;DHT22;13829;48.990;8.346;2024-01-10T02:24:16;-2.00;92.40
5055;DHT22;13829;48.990;8.346;2024-01-10T02:26:44;-1.90;92.10
5055;DHT22;13829;48.990;8.346;2024-01-10T02:29:11;-1.90;92.10
5055;DHT22;13829;48.990;8.346;2024-01-10T02:31:38;-1.90;92.10
5055;DHT22;13829;48.990;8.346;2024-01-10T02:34:05;-2.00;92.20
5055;DHT22;13829;48.990;8.346;2024-01-10T02:36:32;-1.90;92.10
5055;DHT22;13829;48.990;8.346;2024-01-10T02:38:59;-1.90;92.20
5055;DHT22;13829;48.990;8.346;2024-01-10T02:41:26;-1.90;92.10
5055;DHT22;13829;48.990;8.346;2024-01-10T02:43:55;-1.80;92.10
5055;DHT22;13829;48.990;8.346;2024-01-10T02:46:24;-1.90;92.10
5055;DHT22;13829;48.990;8.346;2024-01-10T02:48:53;-1.90;92.10
5055;DHT22;13829;48.990;8.346;2024-01-10T02:51:21;-1.90;92.20
5055;DHT22;13829;48.990;8.346;2024-01-10T02:53:48;-1.90;92.20
5055;DHT22;13829;48.990;8.346;2024-01-10T02:56:15;-1.90;92.30
5055;DHT22;13829;48.990;8.346;2024-01-10T02:58:41;-1.90;92.20
5055;DHT22;13829;48.990;8.346;2024-01-10T03:01:10;-1.90;92.20
5055;DHT22;13829;48.990;8.346;2024-01-10T03:03:37;-1.90;92.40
5055;DHT22;13829;48.990;8.346;2024-01-10T03:06:04;-1.90;92.40
5055;DHT22;13829;48.990;8.346;2024-01-10T03:08:31;-1.90;92.30
5055;DHT22;13829;48.990;8.346;2024-01-10T03:10:58;-1.90;92.30
5055;DHT22;13829;48.990;8.346;2024-01-10T03:13:25;-1.90;92.30
5055;DHT22;13829;48.990;8.346;2024-01-10T03:15:52;-1.90;92.40
5055;DHT22;13829;48.990;8.346;2024-01-10T03:18:20;-1.80;92.40
5055;DHT22;13829;48.990;8.346;2024-01-10T03:20:47;-1.80;92.40
5055;DHT22;13829;48.990;8.346;2024-01-10T03:23:14;-1.90;92.30
5055;DHT22;13829;48.990;8.346;2024-01-10T03:25:41;-1.90;92.40
5055;DHT22;13829;48.990;8.346;2024-01-10T03:28:08;-1.80;92.40
5055;DHT22;13829;48.990;8.346;2024-01-10T03:30:35;-1.90;92.50
5055;DHT22;13829;48.990;8.346;2024-01-10T03:33:02;-1.90;92.50
5055;DHT22;13829;48.990;8.346;2024-01-10T03:35:30;-2.00;92.40
5055;DHT22;13829;48.990;8.346;2024-01-10T03:37:57;-1.90;92.60
5055;DHT22;13829;48.990;8.346;2024-01-10T03:40:24;-2.00;92.70
5055;DHT22;13829;48.990;8.346;2024-01-10T03:42:51;-2.00;92.70
5055;DHT22;13829;48.990;8.346;2024-01-10T03:45:18;-2.10;92.80
5055;DHT22;13829;48.990;8.346;2024-01-10T03:47:48;-2.10;93.00
5055;DHT22;13829;48.990;8.346;2024-01-10T03:50:17;-2.00;92.90
5055;DHT22;13829;48.990;8.346;2024-01-10T03:52:46;-2.00;92.80
5055;DHT22;13829;48.990;8.346;2024-01-10T03:55:14;-1.90;92.80
5055;DHT22;13829;48.990;8.346;2024-01-10T03:57:41;-1.90;93.10
5055;DHT22;13829;48.990;8.346;2024-01-10T04:00:09;-2.00;92.80
5055;DHT22;13829;48.990;8.346;2024-01-10T04:02:37;-1.90;92.80
5055;DHT22;13829;48.990;8.346;2024-01-10T04:05:07;-1.90;92.80
5055;DHT22;13829;48.990;8.346;2024-01-10T04:07:36;-1.90;92.90
5055;DHT22;13829;48.990;8.346;2024-01-10T04:10:06;-1.90;93.00
5055;DHT22;13829;48.990;8.346;2024-01-10T04:12:35;-1.90;93.00
5055;DHT22;13829;48.990;8.346;2024-01-10T04:15:03;-1.90;93.20
5055;DHT22;13829;48.990;8.346;2024-01-10T04:17:31;-1.80;93.00
5055;DHT22;13829;48.990;8.346;2024-01-10T04:19:58;-1.80;93.00
5055;DHT22;13829;48.990;8.346;2024-01-10T04:22:25;-1.80;92.90
5055;DHT22;13829;48.990;8.346;2024-01-10T04:24:52;-1.80;92.90
5055;DHT22;13829;48.990;8.346;2024-01-10T04:27:20;-1.80;93.00
5055;DHT22;13829;48.990;8.346;2024-01-10T04:29:48;-1.90;93.00
5055;DHT22;13829;48.990;8.346;2024-01-10T04:32:14;-1.70;92.80
5055;DHT22;13829;48.990;8.346;2024-01-10T04:34:41;-1.80;92.90
5055;DHT22;13829;48.990;8.346;2024-01-10T04:37:08;-1.90;92.90
5055;DHT22;13829;48.990;8.346;2024-01-10T04:39:35;-1.90;93.10
5055;DHT22;13829;48.990;8.346;2024-01-10T04:42:04;-1.90;93.20
5055;DHT22;13829;48.990;8.346;2024-01-10T04:44:32;-2.00;93.20
5055;DHT22;13829;48.990;8.346;2024-01-10T04:46:59;-1.90;93.10
5055;DHT22;13829;48.990;8.346;2024-01-10T04:49:26;-2.00;93.10
5055;DHT22;13829;48.990;8.346;2024-01-10T04:51:53;-1.90;93.20
5055;DHT22;13829;48.990;8.346;2024-01-10T04:54:20;-1.90;93.20
5055;DHT22;13829;48.990;8.346;2024-01-10T04:56:47;-1.90;93.20
5055;DHT22;13829;48.990;8.346;2024-01-10T04:59:14;-2.00;93.30
5055;DHT22;13829;48.990;8.346;2024-01-10T05:01:42;-2.00;93.40
5055;DHT22;13829;48.990;8.346;2024-01-10T05:04:09;-1.90;93.40
5055;DHT22;13829;48.990;8.346;2024-01-10T05:06:36;-1.90;93.40
5055;DHT22;13829;48.990;8.346;2024-01-10T05:09:03;-1.90;93.60
5055;DHT22;13829;48.990;8.346;2024-01-10T05:11:31;-2.00;93.50
5055;DHT22;13829;48.990;8.346;2024-01-10T05:14:00;-2.00;93.50
5055;DHT22;13829;48.990;8.346;2024-01-10T05:16:27;-2.00;93.60
5055;DHT22;13829;48.990;8.346;2024-01-10T05:18:55;-2.00;93.60
5055;DHT22;13829;48.990;8.346;2024-01-10T05:21:22;-2.00;93.70
5055;DHT22;13829;48.990;8.346;2024-01-10T05:23:49;-2.00;93.60
5055;DHT22;13829;48.990;8.346;2024-01-10T05:26:16;-2.00;93.60
5055;DHT22;13829;48.990;8.346;2024-01-10T05:28:43;-2.00;93.60
5055;DHT22;13829;48.990;8.346;2024-01-10T05:31:10;-2.00;93.60
5055;DHT22;13829;48.990;8.346;2024-01-10T05:33:37;-2.00;93.60
5055;DHT22;13829;48.990;8.346;2024-01-10T05:36:06;-2.00;93.70
5055;DHT22;13829;48.990;8.346;2024-01-10T05:38:33;-2.10;93.70
5055;DHT22;13829;48.990;8.346;2024-01-10T05:41:00;-2.10;93.90
5055;DHT22;13829;48.990;8.346;2024-01-10T05:43:27;-2.00;93.90
5055;DHT22;13829;48.990;8.346;2024-01-10T05:45:54;-2.00;93.90
5055;DHT22;13829;48.990;8.346;2024-01-10T05:48:21;-2.00;93.90
5055;DHT22;13829;48.990;8.346;2024-01-10T05:50:48;-2.10;94.10
5055;DHT22;13829;48.990;8.346;2024-01-10T05:53:17;-2.20;94.20
5055;DHT22;13829;48.990;8.346;2024-01-10T05:55:44;-2.20;94.40
5055;DHT22;13829;48.990;8.346;2024-01-10T05:58:11;-2.20;94.30
5055;DHT22;13829;48.990;8.346;2024-01-10T06:00:38;-2.20;94.50
5055;DHT22;13829;48.990;8.346;2024-01-10T06:03:05;-2.20;94.50
5055;DHT22;13829;48.990;8.346;2024-01-10T06:05:33;-2.20;94.40
5055;DHT22;13829;48.990;8.346;2024-01-10T06:08:00;-2.20;94.60
5055;DHT22;13829;48.990;8.346;2024-01-10T06:10:30;-2.20;94.70
5055;DHT22;13829;48.990;8.346;2024-01-10T06:12:57;-2.20;94.80
5055;DHT22;13829;48.990;8.346;2024-01-10T06:15:24;-2.40;95.00
5055;DHT22;13829;48.990;8.346;2024-01-10T06:17:52;-2.40;95.10
5055;DHT22;13829;48.990;8.346;2024-01-10T06:20:18;-2.40;95.20
5055;DHT22;13829;48.990;8.346;2024-01-10T06:22:46;-2.40;95.30
5055;DHT22;13829;48.990;8.346;2024-01-10T06:25:13;-2.30;95.30
5055;DHT22;13829;48.990;8.346;2024-01-10T06:27:41;-2.30;95.30
5055;DHT22;13829;48.990;8.346;2024-01-10T06:30:09;-2.40;95.30
5055;DHT22;13829;48.990;8.346;2024-01-10T06:32:36;-2.40;95.60
5055;DHT22;13829;48.990;8.346;2024-01-10T06:35:04;-2.40;95.60
5055;DHT22;13829;48.990;8.346;2024-01-10T06:37:31;-2.40;95.60
5055;DHT22;13829;48.990;8.346;2024-01-10T06:39:58;-2.40;95.70
5055;DHT22;13829;48.990;8.346;2024-01-10T06:42:25;-2.40;95.70
5055;DHT22;13829;48.990;8.346;2024-01-10T06:44:54;-2.40;95.90
5055;DHT22;13829;48.990;8.346;2024-01-10T06:47:21;-2.20;95.90
5055;DHT22;13829;48.990;8.346;2024-01-10T06:49:48;-2.20;95.40
5055;DHT22;13829;48.990;8.346;2024-01-10T06:52:15;-2.20;95.50
5055;DHT22;13829;48.990;8.346;2024-01-10T06:54:42;-2.40;95.70
5055;DHT22;13829;48.990;8.346;2024-01-10T06:57:09;-2.40;95.90
5055;DHT22;13829;48.990;8.346;2024-01-10T06:59:36;-2.40;95.80
5055;DHT22;13829;48.990;8.346;2024-01-10T07:02:05;-2.30;95.70
5055;DHT22;13829;48.990;8.346;2024-01-10T07:04:32;-2.30;95.70
5055;DHT22;13829;48.990;8.346;2024-01-10T07:06:59;-2.30;95.80
5055;DHT22;13829;48.990;8.346;2024-01-10T07:09:27;-2.40;96.10
5055;DHT22;13829;48.990;8.346;2024-01-10T07:11:54;-2.30;95.90
5055;DHT22;13829;48.990;8.346;2024-01-10T07:14:21;-2.30;95.80
5055;DHT22;13829;48.990;8.346;2024-01-10T07:16:48;-2.30;95.90
5055;DHT22;13829;48.990;8.346;2024-01-10T07:19:16;-2.40;95.90
5055;DHT22;13829;48.990;8.346;2024-01-10T07:21:43;-2.30;95.80
5055;DHT22;13829;48.990;8.346;2024-01-10T07:24:10;-2.40;95.90
5055;DHT22;13829;48.990;8.346;2024-01-10T07:26:38;-2.40;96.00
5055;DHT22;13829;48.990;8.346;2024-01-10T07:29:05;-2.40;96.00
5055;DHT22;13829;48.990;8.346;2024-01-10T07:31:33;-2.40;96.10
5055;DHT22;13829;48.990;8.346;2024-01-10T07:34:00;-2.30;96.20
5055;DHT22;13829;48.990;8.346;2024-01-10T07:36:32;-2.30;96.10
5055;DHT22;13829;48.990;8.346;2024-01-10T07:39:00;-2.20;96.10
5055;DHT22;13829;48.990;8.346;2024-01-10T07:41:27;-2.30;96.00
5055;DHT22;13829;48.990;8.346;2024-01-10T07:43:54;-2.30;96.10
5055;DHT22;13829;48.990;8.346;2024-01-10T07:46:21;-2.30;96.30
5055;DHT22;13829;48.990;8.346;2024-01-10T07:48:48;-2.30;96.20
5055;DHT22;13829;48.990;8.346;2024-01-10T07:51:15;-2.30;96.20
5055;DHT22;13829;48.990;8.346;2024-01-10T07:53:43;-2.30;96.40
5055;DHT22;13829;48.990;8.346;2024-01-10T07:56:10;-2.30;96.40
5055;DHT22;13829;48.990;8.346;2024-01-10T07:58:38;-2.30;96.40
5055;DHT22;13829;48.990;8.346;2024-01-10T08:01:05;-2.20;96.30
5055;DHT22;13829;48.990;8.346;2024-01-10T08:03:32;-2.20;96.20
5055;DHT22;13829;48.990;8.346;2024-01-10T08:06:00;-2.10;96.40
5055;DHT22;13829;48.990;8.346;2024-01-10T08:08:27;-2.20;96.20
5055;DHT22;13829;48.990;8.346;2024-01-10T08:10:56;-2.10;96.20
5055;DHT22;13829;48.990;8.346;2024-01-10T08:13:23;-1.90;96.00
5055;DHT22;13829;48.990;8.346;2024-01-10T08:15:50;-1.90;95.90
5055;DHT22;13829;48.990;8.346;2024-01-10T08:18:17;-1.80;95.70
5055;DHT22;13829;48.990;8.346;2024-01-10T08:20:44;-1.80;95.60
5055;DHT22;13829;48.990;8.346;2024-01-10T08:23:11;-1.70;95.60
5055;DHT22;13829;48.990;8.346;2024-01-10T08:25:39;-1.70;95.50
5055;DHT22;13829;48.990;8.346;2024-01-10T08:28:07;-1.70;95.30
5055;DHT22;13829;48.990;8.346;2024-01-10T08:30:35;-1.70;95.20
5055;DHT22;13829;48.990;8.346;2024-01-10T08:33:03;-1.60;95.20
5055;DHT22;13829;48.990;8.346;2024-01-10T08:35:31;-1.70;95.10
5055;DHT22;13829;48.990;8.346;2024-01-10T08:37:58;-1.60;95.30
5055;DHT22;13829;48.990;8.346;2024-01-10T08:40:28;-1.50;95.10
5055;DHT22;13829;48.990;8.346;2024-01-10T08:42:55;-1.60;95.20
5055;DHT22;13829;48.990;8.346;2024-01-10T08:45:23;-1.50;95.30
5055;DHT22;13829;48.990;8.346;2024-01-10T08:47:50;-1.40;94.90
5055;DHT22;13829;48.990;8.346;2024-01-10T08:50:18;-1.30;94.80
5055;DHT22;13829;48.990;8.346;2024-01-10T08:52:45;-1.30;94.90
5055;DHT22;13829;48.990;8.346;2024-01-10T08:55:13;-1.30;94.90
5055;DHT22;13829;48.990;8.346;2024-01-10T08:57:40;-1.30;95.00
5055;DHT22;13829;48.990;8.346;2024-01-10T09:00:07;-1.30;95.00
5055;DHT22;13829;48.990;8.346;2024-01-10T09:02:38;-1.20;94.90
5055;DHT22;13829;48.990;8.346;2024-01-10T09:05:06;-1.20;94.90
5055;DHT22;13829;48.990;8.346;2024-01-10T09:07:36;-1.20;95.00
5055;DHT22;13829;48.990;8.346;2024-01-10T09:10:04;-1.10;95.00
5055;DHT22;13829;48.990;8.346;2024-01-10T09:12:33;-1.00;94.90
5055;DHT22;13829;48.990;8.346;2024-01-10T09:15:00;-1.00;94.80
5055;DHT22;13829;48.990;8.346;2024-01-10T09:17:28;-0.90;94.80
5055;DHT22;13829;48.990;8.346;2024-01-10T09:19:55;-0.90;94.70
5055;DHT22;13829;48.990;8.346;2024-01-10T09:22:23;-0.80;94.70
5055;DHT22;13829;48.990;8.346;2024-01-10T09:24:50;-0.80;94.30
5055;DHT22;13829;48.990;8.346;2024-01-10T09:27:17;-0.80;94.50
5055;DHT22;13829;48.990;8.346;2024-01-10T09:29:44;-0.80;94.40
5055;DHT22;13829;48.990;8.346;2024-01-10T09:32:11;-0.60;94.40
5055;DHT22;13829;48.990;8.346;2024-01-10T09:34:38;-0.60;94.50
5055;DHT22;13829;48.990;8.346;2024-01-10T09:37:06;-0.60;94.30
5055;DHT22;13829;48.990;8.346;2024-01-10T09:39:33;-0.60;94.30
5055;DHT22;13829;48.990;8.346;2024-01-10T09:42:00;-0.50;94.30
5055;DHT22;13829;48.990;8.346;2024-01-10T09:44:28;-0.40;94.50
5055;DHT22;13829;48.990;8.346;2024-01-10T09:46:55;-0.30;94.20
5055;DHT22;13829;48.990;8.346;2024-01-10T09:49:22;-0.30;93.80
5055;DHT22;13829;48.990;8.346;2024-01-10T09:51:53;-0.20;93.60
5055;DHT22;13829;48.990;8.346;2024-01-10T09:54:29;-0.20;93.80
5055;DHT22;13829;48.990;8.346;2024-01-10T09:56:57;-0.30;93.80
5055;DHT22;13829;48.990;8.346;2024-01-10T09:59:24;-0.40;93.90
5055;DHT22;13829;48.990;8.346;2024-01-10T10:01:52;-0.30;94.00
5055;DHT22;13829;48.990;8.346;2024-01-10T10:04:20;-0.30;93.80
5055;DHT22;13829;48.990;8.346;2024-01-10T10:06:58;-0.20;93.80
5055;DHT22;13829;48.990;8.346;2024-01-10T10:09:28;-0.30;93.70
5055;DHT22;13829;48.990;8.346;2024-01-10T10:11:56;-0.30;93.70
5055;DHT22;13829;48.990;8.346;2024-01-10T10:14:25;-0.40;93.80
5055;DHT22;13829;48.990;8.346;2024-01-10T10:16:55;-0.40;93.80
5055;DHT22;13829;48.990;8.346;2024-01-10T10:19:23;-0.30;94.00
5055;DHT22;13829;48.990;8.346;2024-01-10T10:21:51;-0.30;93.90
5055;DHT22;13829;48.990;8.346;2024-01-10T10:24:18;-0.20;93.80
5055;DHT22;13829;48.990;8.346;2024-01-10T10:26:46;-0.10;93.70
5055;DHT22;13829;48.990;8.346;2024-01-10T10:29:17;-0.10;93.60
5055;DHT22;13829;48.990;8.346;2024-01-10T10:31:47;-0.10;93.40
5055;DHT22;13829;48.990;8.346;2024-01-10T10:34:21;-0.10;93.40
5055;DHT22;13829;48.990;8.346;2024-01-10T10:36:48;-0.10;93.50
5055;DHT22;13829;48.990;8.346;2024-01-10T10:39:16;-0.10;93.50
5055;DHT22;13829;48.990;8.346;2024-01-10T10:41:43;0.10;93.60
5055;DHT22;13829;48.990;8.346;2024-01-10T10:44:18;0.10;93.50
5055;DHT22;13829;48.990;8.346;2024-01-10T10:46:49;0.20;93.30
5055;DHT22;13829;48.990;8.346;2024-01-10T10:49:24;0.30;93.20
5055;DHT22;13829;48.990;8.346;2024-01-10T10:51:58;0.40;93.30
5055;DHT22;13829;48.990;8.346;2024-01-10T10:54:28;0.30;93.00
5055;DHT22;13829;48.990;8.346;2024-01-10T10:57:01;0.40;93.30
5055;DHT22;13829;48.990;8.346;2024-01-10T10:59:34;0.50;93.10
5055;DHT22;13829;48.990;8.346;2024-01-10T11:02:03;0.50;93.00
5055;DHT22;13829;48.990;8.346;2024-01-10T11:04:32;0.60;93.00
5055;DHT22;13829;48.990;8.346;2024-01-10T11:07:01;0.80;92.90
5055;DHT22;13829;48.990;8.346;2024-01-10T11:09:28;0.90;92.40
5055;DHT22;13829;48.990;8.346;2024-01-10T11:12:09;1.00;92.20
5055;DHT22;13829;48.990;8.346;2024-01-10T11:15:08;0.90;92.30
5055;DHT22;13829;48.990;8.346;2024-01-10T11:18:02;1.00;92.10
5055;DHT22;13829;48.990;8.346;2024-01-10T11:20:51;1.00;92.40
5055;DHT22;13829;48.990;8.346;2024-01-10T11:23:38;0.90;92.00
5055;DHT22;13829;48.990;8.346;2024-01-10T11:26:10;1.00;92.10
5055;DHT22;13829;48.990;8.346;2024-01-10T11:28:40;0.90;92.00
5055;DHT22;13829;48.990;8.346;2024-01-10T11:31:08;0.90;92.10
5055;DHT22;13829;48.990;8.346;2024-01-10T11:33:36;1.00;91.90
5055;DHT22;13829;48.990;8.346;2024-01-10T11:36:16;0.90;92.10
5055;DHT22;13829;48.990;8.346;2024-01-10T11:38:49;1.10;92.20
5055;DHT22;13829;48.990;8.346;2024-01-10T11:41:21;1.30;91.90
5055;DHT22;13829;48.990;8.346;2024-01-10T11:47:16;1.30;91.40
5055;DHT22;13829;48.990;8.346;2024-01-10T11:49:54;1.20;91.50
5055;DHT22;13829;48.990;8.346;2024-01-10T11:52:22;1.20;91.40
5055;DHT22;13829;48.990;8.346;2024-01-10T11:54:50;1.20;91.40
5055;DHT22;13829;48.990;8.346;2024-01-10T11:57:21;1.20;91.40
5055;DHT22;13829;48.990;8.346;2024-01-10T11:59:54;1.20;91.50
5055;DHT22;13829;48.990;8.346;2024-01-10T12:02:25;1.20;91.30
5055;DHT22;13829;48.990;8.346;2024-01-10T12:04:52;1.30;91.00
5055;DHT22;13829;48.990;8.346;2024-01-10T12:07:19;1.40;91.40
5055;DHT22;13829;48.990;8.346;2024-01-10T12:09:47;1.40;91.60
5055;DHT22;13829;48.990;8.346;2024-01-10T12:12:15;1.60;91.40
5055;DHT22;13829;48.990;8.346;2024-01-10T12:14:43;1.50;91.10
5055;DHT22;13829;48.990;8.346;2024-01-10T12:17:11;1.50;91.20
5055;DHT22;13829;48.990;8.346;2024-01-10T12:19:38;1.60;91.20
5055;DHT22;13829;48.990;8.346;2024-01-10T12:22:06;1.80;90.90
5055;DHT22;13829;48.990;8.346;2024-01-10T12:24:42;1.90;90.40
5055;DHT22;13829;48.990;8.346;2024-01-10T12:27:11;1.90;90.50
5055;DHT22;13829;48.990;8.346;2024-01-10T12:29:38;1.80;90.20
5055;DHT22;13829;48.990;8.346;2024-01-10T12:32:07;1.70;90.30
5055;DHT22;13829;48.990;8.346;2024-01-10T12:34:38;1.70;90.50
5055;DHT22;13829;48.990;8.346;2024-01-10T12:37:06;1.70;90.60
5055;DHT22;13829;48.990;8.346;2024-01-10T12:39:33;1.80;90.50
5055;DHT22;13829;48.990;8.346;2024-01-10T12:42:01;1.90;90.30
5055;DHT22;13829;48.990;8.346;2024-01-10T12:44:30;1.90;90.30
5055;DHT22;13829;48.990;8.346;2024-01-10T12:46:57;1.90;90.10
5055;DHT22;13829;48.990;8.346;2024-01-10T12:49:25;1.90;90.30
5055;DHT22;13829;48.990;8.346;2024-01-10T12:51:53;1.90;90.20
5055;DHT22;13829;48.990;8.346;2024-01-10T12:54:21;1.90;90.20
5055;DHT22;13829;48.990;8.346;2024-01-10T12:56:48;1.90;90.10
5055;DHT22;13829;48.990;8.346;2024-01-10T12:59:16;1.80;90.00
5055;DHT22;13829;48.990;8.346;2024-01-10T13:01:43;1.90;90.20
5055;DHT22;13829;48.990;8.346;2024-01-10T13:04:10;1.80;90.30
5055;DHT22;13829;48.990;8.346;2024-01-10T13:06:38;1.80;90.20
5055;DHT22;13829;48.990;8.346;2024-01-10T13:09:07;1.90;90.30
5055;DHT22;13829;48.990;8.346;2024-01-10T13:11:34;1.90;90.60
5055;DHT22;13829;48.990;8.346;2024-01-10T13:14:01;2.00;90.30
5055;DHT22;13829;48.990;8.346;2024-01-10T13:16:28;2.00;90.60
5055;DHT22;13829;48.990;8.346;2024-01-10T13:18:56;2.00;90.40
5055;DHT22;13829;48.990;8.346;2024-01-10T13:21:24;1.90;90.20
5055;DHT22;13829;48.990;8.346;2024-01-10T13:23:51;1.90;90.30
5055;DHT22;13829;48.990;8.346;2024-01-10T13:26:20;1.90;90.30
5055;DHT22;13829;48.990;8.346;2024-01-10T13:28:47;1.80;90.40
5055;DHT22;13829;48.990;8.346;2024-01-10T13:31:16;1.90;90.40
5055;DHT22;13829;48.990;8.346;2024-01-10T13:33:43;1.90;90.30
5055;DHT22;13829;48.990;8.346;2024-01-10T13:36:10;1.90;90.30
5055;DHT22;13829;48.990;8.346;2024-01-10T13:38:37;1.90;90.40
5055;DHT22;13829;48.990;8.346;2024-01-10T13:41:04;1.90;90.60
5055;DHT22;13829;48.990;8.346;2024-01-10T13:43:33;1.90;90.90
5055;DHT22;13829;48.990;8.346;2024-01-10T13:46:00;2.00;90.60
5055;DHT22;13829;48.990;8.346;2024-01-10T13:48:27;2.00;90.50
5055;DHT22;13829;48.990;8.346;2024-01-10T13:50:54;2.00;90.40
5055;DHT22;13829;48.990;8.346;2024-01-10T13:53:21;2.10;90.40
5055;DHT22;13829;48.990;8.346;2024-01-10T13:55:48;2.10;90.40
5055;DHT22;13829;48.990;8.346;2024-01-10T13:58:15;2.00;90.60
5055;DHT22;13829;48.990;8.346;2024-01-10T14:00:45;2.10;90.60
5055;DHT22;13829;48.990;8.346;2024-01-10T14:03:12;2.10;90.50
5055;DHT22;13829;48.990;8.346;2024-01-10T14:05:40;2.10;90.40
5055;DHT22;13829;48.990;8.346;2024-01-10T14:08:06;2.00;90.50
5055;DHT22;13829;48.990;8.346;2024-01-10T14:10:34;2.00;90.60
5055;DHT22;13829;48.990;8.346;2024-01-10T14:13:01;2.00;90.70
5055;DHT22;13829;48.990;8.346;2024-01-10T14:15:29;2.00;90.80
5055;DHT22;13829;48.990;8.346;2024-01-10T14:17:57;2.00;90.80
5055;DHT22;13829;48.990;8.346;2024-01-10T14:20:24;2.00;90.60
5055;DHT22;13829;48.990;8.346;2024-01-10T14:22:51;2.10;90.70
5055;DHT22;13829;48.990;8.346;2024-01-10T14:25:18;2.00;90.60
5055;DHT22;13829;48.990;8.346;2024-01-10T14:27:46;2.10;90.60
5055;DHT22;13829;48.990;8.346;2024-01-10T14:30:13;2.00;90.60
5055;DHT22;13829;48.990;8.346;2024-01-10T14:32:41;2.00;90.70
5055;DHT22;13829;48.990;8.346;2024-01-10T14:35:09;2.00;90.80
5055;DHT22;13829;48.990;8.346;2024-01-10T14:37:36;2.00;90.80
5055;DHT22;13829;48.990;8.346;2024-01-10T14:40:04;2.00;90.80
5055;DHT22;13829;48.990;8.346;2024-01-10T14:42:32;2.10;90.80
5055;DHT22;13829;48.990;8.346;2024-01-10T14:44:59;2.00;90.70
5055;DHT22;13829;48.990;8.346;2024-01-10T14:47:26;2.00;91.10
5055;DHT22;13829;48.990;8.346;2024-01-10T14:49:53;1.90;91.00
5055;DHT22;13829;48.990;8.346;2024-01-10T14:52:24;1.80;91.30
5055;DHT22;13829;48.990;8.346;2024-01-10T14:54:51;1.90;91.00
5055;DHT22;13829;48.990;8.346;2024-01-10T14:57:18;1.80;91.20
5055;DHT22;13829;48.990;8.346;2024-01-10T14:59:46;1.80;91.40
5055;DHT22;13829;48.990;8.346;2024-01-10T15:02:13;1.80;91.30
5055;DHT22;13829;48.990;8.346;2024-01-10T15:04:41;1.90;91.50
5055;DHT22;13829;48.990;8.346;2024-01-10T15:07:09;1.90;91.40
5055;DHT22;13829;48.990;8.346;2024-01-10T15:09:38;1.80;91.40
5055;DHT22;13829;48.990;8.346;2024-01-10T15:12:05;1.80;91.50
5055;DHT22;13829;48.990;8.346;2024-01-10T15:14:33;1.80;91.70
5055;DHT22;13829;48.990;8.346;2024-01-10T15:17:02;1.70;91.70
5055;DHT22;13829;48.990;8.346;2024-01-10T15:19:32;1.80;91.70
5055;DHT22;13829;48.990;8.346;2024-01-10T15:21:59;1.70;91.70
5055;DHT22;13829;48.990;8.346;2024-01-10T15:24:27;1.70;91.70
5055;DHT22;13829;48.990;8.346;2024-01-10T15:26:56;1.70;91.70
5055;DHT22;13829;48.990;8.346;2024-01-10T15:29:27;1.70;91.80
5055;DHT22;13829;48.990;8.346;2024-01-10T15:31:54;1.60;91.90
5055;DHT22;13829;48.990;8.346;2024-01-10T15:34:21;1.50;92.10
5055;DHT22;13829;48.990;8.346;2024-01-10T15:36:50;1.50;92.30
5055;DHT22;13829;48.990;8.346;2024-01-10T15:39:17;1.50;92.20
5055;DHT22;13829;48.990;8.346;2024-01-10T15:41:45;1.50;92.40
5055;DHT22;13829;48.990;8.346;2024-01-10T15:44:14;1.60;92.40
5055;DHT22;13829;48.990;8.346;2024-01-10T15:46:41;1.40;92.50
5055;DHT22;13829;48.990;8.346;2024-01-10T15:49:08;1.30;92.60
5055;DHT22;13829;48.990;8.346;2024-01-10T15:51:35;1.30;92.70
5055;DHT22;13829;48.990;8.346;2024-01-10T15:54:02;1.30;92.90
5055;DHT22;13829;48.990;8.346;2024-01-10T15:56:29;1.20;93.10
5055;DHT22;13829;48.990;8.346;2024-01-10T15:58:57;1.20;93.10
5055;DHT22;13829;48.990;8.346;2024-01-10T16:01:25;1.30;93.10